sensor_id;sensor_type;location;lat;lon;timestamp;temperature;humidity
19930;DHT22;10127;47.780;9.606;2022-09-24T00:01:16;14.00;99.90
19930;DHT22;10127;47.780;9.606;2022-09-24T00:03:43;14.00;99.90
19930;DHT22;10127;47.780;9.606;2022-09-24T00:06:12;14.10;99.90
19930;DHT22;10127;47.780;9.606;2022-09-24T00:08:44;14.10;99.90
19930;DHT22;10127;47.780;9.606;2022-09-24T00:11:10;14.10;99.90
19930;DHT22;10127;47.780;9.606;2022-09-24T00:13:37;14.00;99.90
19930;DHT22;10127;47.780;9.606;2022-09-24T00:16:06;14.10;99.90
19930;DHT22;10127;47.780;9.606;2022-09-24T00:18:32;14.10;99.90
19930;DHT22;10127;47.780;9.606;2022-09-24T00:20:58;14.20;99.90
19930;DHT22;10127;47.780;9.606;2022-09-24T00:23:24;14.10;99.90
19930;DHT22;10127;47.780;9.606;2022-09-24T00:25:50;14.00;99.90
19930;DHT22;10127;47.780;9.606;2022-09-24T00:28:34;13.80;99.90
19930;DHT22;10127;47.780;9.606;2022-09-24T00:31:04;13.70;99.90
19930;DHT22;10127;47.780;9.606;2022-09-24T00:33:32;13.80;99.90
19930;DHT22;10127;47.780;9.606;2022-09-24T00:36:00;13.80;99.90
19930;DHT22;10127;47.780;9.606;2022-09-24T00:38:27;13.80;99.90
19930;DHT22;10127;47.780;9.606;2022-09-24T00:40:53;13.90;99.90
19930;DHT22;10127;47.780;9.606;2022-09-24T00:43:27;13.90;99.90
19930;DHT22;10127;47.780;9.606;2022-09-24T00:46:06;13.90;99.90
19930;DHT22;10127;47.780;9.606;2022-09-24T00:48:33;13.80;99.90
19930;DHT22;10127;47.780;9.606;2022-09-24T00:51:00;13.80;99.90
19930;DHT22;10127;47.780;9.606;2022-09-24T00:53:27;13.80;99.90
19930;DHT22;10127;47.780;9.606;2022-09-24T00:55:58;13.80;99.90
19930;DHT22;10127;47.780;9.606;2022-09-24T00:58:25;13.90;99.90
19930;DHT22;10127;47.780;9.606;2022-09-24T01:00:58;13.90;99.90
19930;DHT22;10127;47.780;9.606;2022-09-24T01:03:26;14.00;99.90
19930;DHT22;10127;47.780;9.606;2022-09-24T01:05:54;14.00;99.90
19930;DHT22;10127;47.780;9.606;2022-09-24T01:08:20;13.80;99.90
19930;DHT22;10127;47.780;9.606;2022-09-24T01:16:31;13.50;99.90
19930;DHT22;10127;47.780;9.606;2022-09-24T01:19:17;13.50;99.90
19930;DHT22;10127;47.780;9.606;2022-09-24T01:21:50;13.60;99.90
19930;DHT22;10127;47.780;9.606;2022-09-24T01:34:51;13.70;99.90
19930;DHT22;10127;47.780;9.606;2022-09-24T01:37:21;13.70;99.90
19930;DHT22;10127;47.780;9.606;2022-09-24T01:39:48;13.70;99.90
19930;DHT22;10127;47.780;9.606;2022-09-24T01:42:16;13.60;99.90
19930;DHT22;10127;47.780;9.606;2022-09-24T01:44:43;13.60;99.90
19930;DHT22;10127;47.780;9.606;2022-09-24T01:47:09;13.50;99.90
19930;DHT22;10127;47.780;9.606;2022-09-24T01:49:37;13.50;99.90
19930;DHT22;10127;47.780;9.606;2022-09-24T01:52:06;13.60;99.90
19930;DHT22;10127;47.780;9.606;2022-09-24T01:54:37;13.60;99.90
19930;DHT22;10127;47.780;9.606;2022-09-24T01:57:16;13.70;99.90
19930;DHT22;10127;47.780;9.606;2022-09-24T01:59:55;13.70;99.90
19930;DHT22;10127;47.780;9.606;2022-09-24T02:02:22;13.80;99.90
19930;DHT22;10127;47.780;9.606;2022-09-24T02:05:03;13.80;99.90
19930;DHT22;10127;47.780;9.606;2022-09-24T02:07:55;13.70;99.90
19930;DHT22;10127;47.780;9.606;2022-09-24T02:10:23;13.70;99.90
19930;DHT22;10127;47.780;9.606;2022-09-24T02:12:53;13.70;99.90
19930;DHT22;10127;47.780;9.606;2022-09-24T02:15:29;13.70;99.90
19930;DHT22;10127;47.780;9.606;2022-09-24T02:18:02;13.70;99.90
19930;DHT22;10127;47.780;9.606;2022-09-24T02:20:30;13.70;99.90
19930;DHT22;10127;47.780;9.606;2022-09-24T02:22:58;13.80;99.90
19930;DHT22;10127;47.780;9.606;2022-09-24T02:25:29;13.80;99.90
19930;DHT22;10127;47.780;9.606;2022-09-24T02:27:56;13.80;99.90
19930;DHT22;10127;47.780;9.606;2022-09-24T02:30:21;13.90;99.90
19930;DHT22;10127;47.780;9.606;2022-09-24T02:32:48;13.80;99.90
19930;DHT22;10127;47.780;9.606;2022-09-24T02:35:15;13.90;99.90
19930;DHT22;10127;47.780;9.606;2022-09-24T02:37:42;13.60;99.90
19930;DHT22;10127;47.780;9.606;2022-09-24T02:40:11;13.60;99.90
19930;DHT22;10127;47.780;9.606;2022-09-24T02:42:37;13.50;99.90
19930;DHT22;10127;47.780;9.606;2022-09-24T02:45:05;13.40;99.90
19930;DHT22;10127;47.780;9.606;2022-09-24T02:47:31;13.40;99.90
19930;DHT22;10127;47.780;9.606;2022-09-24T02:49:56;13.50;99.90
19930;DHT22;10127;47.780;9.606;2022-09-24T03:12:55;13.50;99.90
19930;DHT22;10127;47.780;9.606;2022-09-24T03:15:21;13.50;99.90
19930;DHT22;10127;47.780;9.606;2022-09-24T03:17:46;13.50;99.90
19930;DHT22;10127;47.780;9.606;2022-09-24T03:20:12;13.70;99.90
19930;DHT22;10127;47.780;9.606;2022-09-24T03:22:38;13.70;99.90
19930;DHT22;10127;47.780;9.606;2022-09-24T03:25:04;13.70;99.90
19930;DHT22;10127;47.780;9.606;2022-09-24T03:27:29;13.70;99.90
19930;DHT22;10127;47.780;9.606;2022-09-24T03:29:55;13.80;99.90
19930;DHT22;10127;47.780;9.606;2022-09-24T03:32:39;13.90;99.90
19930;DHT22;10127;47.780;9.606;2022-09-24T03:35:05;13.80;99.90
19930;DHT22;10127;47.780;9.606;2022-09-24T03:37:30;13.70;99.90
19930;DHT22;10127;47.780;9.606;2022-09-24T03:39:57;13.50;99.90
19930;DHT22;10127;47.780;9.606;2022-09-24T03:42:23;13.50;99.90
19930;DHT22;10127;47.780;9.606;2022-09-24T03:44:49;13.70;99.90
19930;DHT22;10127;47.780;9.606;2022-09-24T03:47:16;13.80;99.90
19930;DHT22;10127;47.780;9.606;2022-09-24T03:49:41;13.90;99.90
19930;DHT22;10127;47.780;9.606;2022-09-24T03:52:07;13.80;99.90
19930;DHT22;10127;47.780;9.606;2022-09-24T03:54:32;13.90;99.90
19930;DHT22;10127;47.780;9.606;2022-09-24T03:56:58;13.90;99.90
19930;DHT22;10127;47.780;9.606;2022-09-24T03:59:23;13.80;99.90
19930;DHT22;10127;47.780;9.606;2022-09-24T04:01:49;13.70;99.90
19930;DHT22;10127;47.780;9.606;2022-09-24T04:04:15;13.60;99.90
19930;DHT22;10127;47.780;9.606;2022-09-24T04:06:41;13.70;99.90
19930;DHT22;10127;47.780;9.606;2022-09-24T04:09:06;13.70;99.90
19930;DHT22;10127;47.780;9.606;2022-09-24T04:11:32;13.70;99.90
19930;DHT22;10127;47.780;9.606;2022-09-24T04:14:00;13.50;99.90
19930;DHT22;10127;47.780;9.606;2022-09-24T04:16:26;13.50;99.90
19930;DHT22;10127;47.780;9.606;2022-09-24T04:18:51;13.60;99.90
19930;DHT22;10127;47.780;9.606;2022-09-24T04:21:20;13.50;99.90
19930;DHT22;10127;47.780;9.606;2022-09-24T04:23:46;13.50;99.90
19930;DHT22;10127;47.780;9.606;2022-09-24T04:26:12;13.50;99.90
19930;DHT22;10127;47.780;9.606;2022-09-24T04:28:38;13.50;99.90
19930;DHT22;10127;47.780;9.606;2022-09-24T04:31:03;13.50;99.90
19930;DHT22;10127;47.780;9.606;2022-09-24T04:33:30;13.50;99.90
19930;DHT22;10127;47.780;9.606;2022-09-24T04:35:55;13.40;99.90
19930;DHT22;10127;47.780;9.606;2022-09-24T04:38:21;13.40;99.90
19930;DHT22;10127;47.780;9.606;2022-09-24T04:40:47;13.30;99.90
19930;DHT22;10127;47.780;9.606;2022-09-24T04:43:13;13.30;99.90
19930;DHT22;10127;47.780;9.606;2022-09-24T04:45:39;13.40;99.90
19930;DHT22;10127;47.780;9.606;2022-09-24T04:48:04;13.40;99.90
19930;DHT22;10127;47.780;9.606;2022-09-24T04:50:30;13.50;99.90
19930;DHT22;10127;47.780;9.606;2022-09-24T04:52:58;13.40;99.90
19930;DHT22;10127;47.780;9.606;2022-09-24T04:55:24;13.40;99.90
19930;DHT22;10127;47.780;9.606;2022-09-24T04:57:49;13.40;99.90
19930;DHT22;10127;47.780;9.606;2022-09-24T05:00:17;13.50;99.90
19930;DHT22;10127;47.780;9.606;2022-09-24T05:02:43;13.50;99.90
19930;DHT22;10127;47.780;9.606;2022-09-24T05:05:09;13.50;99.90
19930;DHT22;10127;47.780;9.606;2022-09-24T05:07:36;13.40;99.90
19930;DHT22;10127;47.780;9.606;2022-09-24T05:10:02;13.40;99.90
19930;DHT22;10127;47.780;9.606;2022-09-24T05:12:28;13.40;99.90
19930;DHT22;10127;47.780;9.606;2022-09-24T05:14:53;13.50;99.90
19930;DHT22;10127;47.780;9.606;2022-09-24T05:17:19;13.50;99.90
19930;DHT22;10127;47.780;9.606;2022-09-24T05:19:44;13.50;99.90
19930;DHT22;10127;47.780;9.606;2022-09-24T05:22:10;13.60;99.90
19930;DHT22;10127;47.780;9.606;2022-09-24T05:24:36;13.60;99.90
19930;DHT22;10127;47.780;9.606;2022-09-24T05:27:01;13.50;99.90
19930;DHT22;10127;47.780;9.606;2022-09-24T05:29:40;13.50;99.90
19930;DHT22;10127;47.780;9.606;2022-09-24T05:32:10;13.50;99.90
19930;DHT22;10127;47.780;9.606;2022-09-24T05:34:36;13.50;99.90
19930;DHT22;10127;47.780;9.606;2022-09-24T05:37:02;13.60;99.90
19930;DHT22;10127;47.780;9.606;2022-09-24T05:39:28;13.60;99.90
19930;DHT22;10127;47.780;9.606;2022-09-24T05:41:55;13.70;99.90
19930;DHT22;10127;47.780;9.606;2022-09-24T05:44:21;13.70;99.90
19930;DHT22;10127;47.780;9.606;2022-09-24T05:46:48;13.70;99.90
19930;DHT22;10127;47.780;9.606;2022-09-24T05:49:13;13.70;99.90
19930;DHT22;10127;47.780;9.606;2022-09-24T05:51:39;13.70;99.90
19930;DHT22;10127;47.780;9.606;2022-09-24T05:54:05;13.70;99.90
19930;DHT22;10127;47.780;9.606;2022-09-24T05:56:31;13.70;99.90
19930;DHT22;10127;47.780;9.606;2022-09-24T05:58:57;13.70;99.90
19930;DHT22;10127;47.780;9.606;2022-09-24T06:01:26;13.60;99.90
19930;DHT22;10127;47.780;9.606;2022-09-24T06:03:54;13.60;99.90
19930;DHT22;10127;47.780;9.606;2022-09-24T06:06:21;13.60;99.90
19930;DHT22;10127;47.780;9.606;2022-09-24T06:08:46;13.60;99.90
19930;DHT22;10127;47.780;9.606;2022-09-24T06:11:12;13.60;99.90
19930;DHT22;10127;47.780;9.606;2022-09-24T06:13:38;13.60;99.90
19930;DHT22;10127;47.780;9.606;2022-09-24T06:16:06;13.70;99.90
19930;DHT22;10127;47.780;9.606;2022-09-24T06:18:38;13.60;99.90
19930;DHT22;10127;47.780;9.606;2022-09-24T06:21:10;13.70;99.90
19930;DHT22;10127;47.780;9.606;2022-09-24T06:23:36;13.70;99.90
19930;DHT22;10127;47.780;9.606;2022-09-24T06:26:04;13.70;99.90
19930;DHT22;10127;47.780;9.606;2022-09-24T06:28:30;13.70;99.90
19930;DHT22;10127;47.780;9.606;2022-09-24T06:30:58;13.70;99.90
19930;DHT22;10127;47.780;9.606;2022-09-24T06:33:24;13.70;99.90
19930;DHT22;10127;47.780;9.606;2022-09-24T06:35:50;13.80;99.90
19930;DHT22;10127;47.780;9.606;2022-09-24T06:38:17;13.80;99.90
19930;DHT22;10127;47.780;9.606;2022-09-24T06:40:44;13.70;99.90
19930;DHT22;10127;47.780;9.606;2022-09-24T06:43:11;13.80;99.90
19930;DHT22;10127;47.780;9.606;2022-09-24T06:45:37;13.70;99.90
19930;DHT22;10127;47.780;9.606;2022-09-24T06:48:05;13.70;99.90
19930;DHT22;10127;47.780;9.606;2022-09-24T06:50:32;13.70;99.90
19930;DHT22;10127;47.780;9.606;2022-09-24T06:52:59;13.70;99.90
19930;DHT22;10127;47.780;9.606;2022-09-24T06:55:25;13.70;99.90
19930;DHT22;10127;47.780;9.606;2022-09-24T06:58:01;13.70;99.90
19930;DHT22;10127;47.780;9.606;2022-09-24T07:00:27;13.70;99.90
19930;DHT22;10127;47.780;9.606;2022-09-24T07:02:52;13.70;99.90
19930;DHT22;10127;47.780;9.606;2022-09-24T07:05:18;13.80;99.90
19930;DHT22;10127;47.780;9.606;2022-09-24T07:07:43;13.80;99.90
19930;DHT22;10127;47.780;9.606;2022-09-24T07:10:09;13.90;99.90
19930;DHT22;10127;47.780;9.606;2022-09-24T07:12:35;13.90;99.90
19930;DHT22;10127;47.780;9.606;2022-09-24T07:15:01;13.90;99.90
19930;DHT22;10127;47.780;9.606;2022-09-24T07:17:28;13.90;99.90
19930;DHT22;10127;47.780;9.606;2022-09-24T07:19:54;14.00;99.90
19930;DHT22;10127;47.780;9.606;2022-09-24T07:22:20;14.10;99.90
19930;DHT22;10127;47.780;9.606;2022-09-24T07:24:46;14.20;99.90
19930;DHT22;10127;47.780;9.606;2022-09-24T07:27:13;14.20;99.90
19930;DHT22;10127;47.780;9.606;2022-09-24T07:29:38;14.30;99.90
19930;DHT22;10127;47.780;9.606;2022-09-24T07:32:04;14.40;99.90
19930;DHT22;10127;47.780;9.606;2022-09-24T07:34:30;14.40;99.90
19930;DHT22;10127;47.780;9.606;2022-09-24T07:36:57;14.50;99.90
19930;DHT22;10127;47.780;9.606;2022-09-24T07:39:23;14.50;99.90
19930;DHT22;10127;47.780;9.606;2022-09-24T07:41:49;14.60;99.90
19930;DHT22;10127;47.780;9.606;2022-09-24T07:44:17;14.70;99.90
19930;DHT22;10127;47.780;9.606;2022-09-24T07:46:46;14.70;99.90
19930;DHT22;10127;47.780;9.606;2022-09-24T07:49:12;14.70;99.90
19930;DHT22;10127;47.780;9.606;2022-09-24T07:51:37;14.80;99.90
19930;DHT22;10127;47.780;9.606;2022-09-24T07:54:03;14.90;99.90
19930;DHT22;10127;47.780;9.606;2022-09-24T07:56:30;14.90;99.90
19930;DHT22;10127;47.780;9.606;2022-09-24T07:58:59;14.90;99.90
19930;DHT22;10127;47.780;9.606;2022-09-24T08:01:25;14.90;99.90
19930;DHT22;10127;47.780;9.606;2022-09-24T08:03:51;14.90;99.90
19930;DHT22;10127;47.780;9.606;2022-09-24T08:06:18;15.00;99.90
19930;DHT22;10127;47.780;9.606;2022-09-24T08:08:47;15.00;99.90
19930;DHT22;10127;47.780;9.606;2022-09-24T08:11:13;15.10;99.90
19930;DHT22;10127;47.780;9.606;2022-09-24T08:13:38;15.20;99.90
19930;DHT22;10127;47.780;9.606;2022-09-24T08:16:04;15.30;99.90
19930;DHT22;10127;47.780;9.606;2022-09-24T08:18:31;15.40;99.90
19930;DHT22;10127;47.780;9.606;2022-09-24T08:20:58;15.50;99.90
19930;DHT22;10127;47.780;9.606;2022-09-24T08:23:27;15.50;99.90
19930;DHT22;10127;47.780;9.606;2022-09-24T08:25:53;15.60;99.90
19930;DHT22;10127;47.780;9.606;2022-09-24T08:28:19;15.70;99.90
19930;DHT22;10127;47.780;9.606;2022-09-24T08:30:45;15.70;99.90
19930;DHT22;10127;47.780;9.606;2022-09-24T08:33:11;15.60;99.90
19930;DHT22;10127;47.780;9.606;2022-09-24T08:35:37;15.50;99.90
19930;DHT22;10127;47.780;9.606;2022-09-24T08:38:06;15.50;99.90
19930;DHT22;10127;47.780;9.606;2022-09-24T08:40:48;15.30;99.90
19930;DHT22;10127;47.780;9.606;2022-09-24T08:43:33;15.30;99.90
19930;DHT22;10127;47.780;9.606;2022-09-24T08:46:07;15.30;99.90
19930;DHT22;10127;47.780;9.606;2022-09-24T08:48:54;15.30;99.90
19930;DHT22;10127;47.780;9.606;2022-09-24T08:51:21;15.20;99.90
19930;DHT22;10127;47.780;9.606;2022-09-24T08:53:54;15.20;99.90
19930;DHT22;10127;47.780;9.606;2022-09-24T08:56:31;15.10;99.90
19930;DHT22;10127;47.780;9.606;2022-09-24T08:59:31;15.10;99.90
19930;DHT22;10127;47.780;9.606;2022-09-24T09:08:01;15.10;99.90
19930;DHT22;10127;47.780;9.606;2022-09-24T09:10:32;15.10;99.90
19930;DHT22;10127;47.780;9.606;2022-09-24T09:13:10;15.20;99.90
19930;DHT22;10127;47.780;9.606;2022-09-24T09:15:45;15.20;99.90
19930;DHT22;10127;47.780;9.606;2022-09-24T09:18:16;15.30;99.90
19930;DHT22;10127;47.780;9.606;2022-09-24T09:20:44;15.40;99.90
19930;DHT22;10127;47.780;9.606;2022-09-24T09:23:33;15.60;99.90
19930;DHT22;10127;47.780;9.606;2022-09-24T09:26:01;15.70;99.90
19930;DHT22;10127;47.780;9.606;2022-09-24T09:28:28;15.70;99.90
19930;DHT22;10127;47.780;9.606;2022-09-24T09:33:41;15.80;99.90
19930;DHT22;10127;47.780;9.606;2022-09-24T09:36:15;15.80;99.90
19930;DHT22;10127;47.780;9.606;2022-09-24T09:38:53;15.90;99.90
19930;DHT22;10127;47.780;9.606;2022-09-24T09:42:07;15.80;99.90
19930;DHT22;10127;47.780;9.606;2022-09-24T09:44:26;15.80;99.90
19930;DHT22;10127;47.780;9.606;2022-09-24T09:47:00;15.80;99.90
19930;DHT22;10127;47.780;9.606;2022-09-24T09:49:32;15.90;99.90
19930;DHT22;10127;47.780;9.606;2022-09-24T09:52:01;15.90;99.90
19930;DHT22;10127;47.780;9.606;2022-09-24T09:54:38;16.00;99.90
19930;DHT22;10127;47.780;9.606;2022-09-24T09:57:07;15.90;99.90
19930;DHT22;10127;47.780;9.606;2022-09-24T09:59:37;15.90;99.90
19930;DHT22;10127;47.780;9.606;2022-09-24T10:02:09;16.00;99.90
19930;DHT22;10127;47.780;9.606;2022-09-24T10:04:42;16.00;99.90
19930;DHT22;10127;47.780;9.606;2022-09-24T10:07:12;16.00;99.90
19930;DHT22;10127;47.780;9.606;2022-09-24T10:09:39;15.90;99.90
19930;DHT22;10127;47.780;9.606;2022-09-24T10:12:19;15.90;99.90
19930;DHT22;10127;47.780;9.606;2022-09-24T10:15:00;15.90;99.90
19930;DHT22;10127;47.780;9.606;2022-09-24T10:17:37;15.80;99.90
19930;DHT22;10127;47.780;9.606;2022-09-24T10:22:55;15.70;99.90
19930;DHT22;10127;47.780;9.606;2022-09-24T10:25:28;15.80;99.90
19930;DHT22;10127;47.780;9.606;2022-09-24T10:27:57;15.90;99.90
19930;DHT22;10127;47.780;9.606;2022-09-24T10:33:17;16.20;99.90
19930;DHT22;10127;47.780;9.606;2022-09-24T10:35:43;16.30;99.90
19930;DHT22;10127;47.780;9.606;2022-09-24T10:38:21;16.50;99.90
19930;DHT22;10127;47.780;9.606;2022-09-24T10:40:49;16.50;99.90
19930;DHT22;10127;47.780;9.606;2022-09-24T10:43:18;16.50;99.90
19930;DHT22;10127;47.780;9.606;2022-09-24T10:51:33;16.50;99.90
19930;DHT22;10127;47.780;9.606;2022-09-24T10:56:49;16.80;99.90
19930;DHT22;10127;47.780;9.606;2022-09-24T11:05:13;16.80;99.90
19930;DHT22;10127;47.780;9.606;2022-09-24T11:13:32;16.80;99.90
19930;DHT22;10127;47.780;9.606;2022-09-24T11:16:35;16.70;99.90
19930;DHT22;10127;47.780;9.606;2022-09-24T11:30:18;16.30;99.90
19930;DHT22;10127;47.780;9.606;2022-09-24T11:54:52;16.70;99.90
19930;DHT22;10127;47.780;9.606;2022-09-24T11:57:32;16.90;99.90
19930;DHT22;10127;47.780;9.606;2022-09-24T12:00:03;17.00;99.90
19930;DHT22;10127;47.780;9.606;2022-09-24T12:08:03;16.60;99.90
19930;DHT22;10127;47.780;9.606;2022-09-24T12:13:19;16.70;99.90
19930;DHT22;10127;47.780;9.606;2022-09-24T12:18:24;16.80;99.90
19930;DHT22;10127;47.780;9.606;2022-09-24T12:20:57;16.90;99.90
19930;DHT22;10127;47.780;9.606;2022-09-24T12:23:28;16.90;99.90
19930;DHT22;10127;47.780;9.606;2022-09-24T12:25:57;16.90;99.90
19930;DHT22;10127;47.780;9.606;2022-09-24T12:28:25;16.80;99.90
19930;DHT22;10127;47.780;9.606;2022-09-24T12:37:12;16.90;99.90
19930;DHT22;10127;47.780;9.606;2022-09-24T12:42:14;16.90;99.90
19930;DHT22;10127;47.780;9.606;2022-09-24T12:44:45;16.90;99.90
19930;DHT22;10127;47.780;9.606;2022-09-24T12:47:16;16.70;99.90
19930;DHT22;10127;47.780;9.606;2022-09-24T12:49:51;16.50;99.90
19930;DHT22;10127;47.780;9.606;2022-09-24T12:54:57;16.50;99.90
19930;DHT22;10127;47.780;9.606;2022-09-24T12:57:41;16.50;99.90
19930;DHT22;10127;47.780;9.606;2022-09-24T13:00:49;16.50;99.90
19930;DHT22;10127;47.780;9.606;2022-09-24T13:03:36;16.50;99.90
19930;DHT22;10127;47.780;9.606;2022-09-24T13:06:20;16.50;99.90
19930;DHT22;10127;47.780;9.606;2022-09-24T13:08:46;16.50;99.90
19930;DHT22;10127;47.780;9.606;2022-09-24T13:11:32;16.50;99.90
19930;DHT22;10127;47.780;9.606;2022-09-24T13:16:38;16.50;99.90
19930;DHT22;10127;47.780;9.606;2022-09-24T13:19:21;16.60;99.90
19930;DHT22;10127;47.780;9.606;2022-09-24T13:21:55;16.60;99.90
19930;DHT22;10127;47.780;9.606;2022-09-24T13:24:27;16.70;99.90
19930;DHT22;10127;47.780;9.606;2022-09-24T13:26:53;16.90;99.90
19930;DHT22;10127;47.780;9.606;2022-09-24T13:29:24;17.10;99.90
19930;DHT22;10127;47.780;9.606;2022-09-24T13:31:54;17.50;99.90
19930;DHT22;10127;47.780;9.606;2022-09-24T13:34:29;17.60;99.90
19930;DHT22;10127;47.780;9.606;2022-09-24T13:37:00;17.40;99.90
19930;DHT22;10127;47.780;9.606;2022-09-24T13:45:00;16.90;99.90
19930;DHT22;10127;47.780;9.606;2022-09-24T13:47:41;16.80;99.90
19930;DHT22;10127;47.780;9.606;2022-09-24T13:50:24;16.70;99.90
19930;DHT22;10127;47.780;9.606;2022-09-24T13:53:17;16.70;99.90
19930;DHT22;10127;47.780;9.606;2022-09-24T13:55:48;16.70;99.90
19930;DHT22;10127;47.780;9.606;2022-09-24T13:58:37;16.50;99.90
19930;DHT22;10127;47.780;9.606;2022-09-24T14:01:09;16.50;99.90
19930;DHT22;10127;47.780;9.606;2022-09-24T14:03:36;16.50;99.90
19930;DHT22;10127;47.780;9.606;2022-09-24T14:06:14;16.50;99.90
19930;DHT22;10127;47.780;9.606;2022-09-24T14:08:43;16.40;99.90
19930;DHT22;10127;47.780;9.606;2022-09-24T14:13:38;16.30;99.90
19930;DHT22;10127;47.780;9.606;2022-09-24T14:16:14;16.20;99.90
19930;DHT22;10127;47.780;9.606;2022-09-24T14:18:40;16.10;99.90
19930;DHT22;10127;47.780;9.606;2022-09-24T14:24:04;16.20;99.90
19930;DHT22;10127;47.780;9.606;2022-09-24T14:26:41;16.20;99.90
19930;DHT22;10127;47.780;9.606;2022-09-24T14:29:23;16.20;99.90
19930;DHT22;10127;47.780;9.606;2022-09-24T14:32:00;16.20;99.90
19930;DHT22;10127;47.780;9.606;2022-09-24T14:34:36;16.10;99.90
19930;DHT22;10127;47.780;9.606;2022-09-24T14:37:18;16.10;99.90
19930;DHT22;10127;47.780;9.606;2022-09-24T14:39:47;16.10;99.90
19930;DHT22;10127;47.780;9.606;2022-09-24T14:42:24;16.00;99.90
19930;DHT22;10127;47.780;9.606;2022-09-24T14:44:52;16.00;99.90
19930;DHT22;10127;47.780;9.606;2022-09-24T14:47:29;16.00;99.90
19930;DHT22;10127;47.780;9.606;2022-09-24T14:49:55;16.00;99.90
19930;DHT22;10127;47.780;9.606;2022-09-24T14:52:39;16.00;99.90
19930;DHT22;10127;47.780;9.606;2022-09-24T14:55:17;15.90;99.90
19930;DHT22;10127;47.780;9.606;2022-09-24T14:57:45;15.80;99.90
19930;DHT22;10127;47.780;9.606;2022-09-24T15:02:58;15.70;99.90
19930;DHT22;10127;47.780;9.606;2022-09-24T15:05:26;15.70;99.90
19930;DHT22;10127;47.780;9.606;2022-09-24T15:08:09;15.70;99.90
19930;DHT22;10127;47.780;9.606;2022-09-24T15:10:40;15.70;99.90
19930;DHT22;10127;47.780;9.606;2022-09-24T15:13:22;15.70;99.90
19930;DHT22;10127;47.780;9.606;2022-09-24T15:15:48;15.70;99.90
19930;DHT22;10127;47.780;9.606;2022-09-24T15:18:24;15.70;99.90
19930;DHT22;10127;47.780;9.606;2022-09-24T15:20:50;15.80;99.90
19930;DHT22;10127;47.780;9.606;2022-09-24T15:23:16;15.80;99.90
19930;DHT22;10127;47.780;9.606;2022-09-24T15:25:41;15.80;99.90
19930;DHT22;10127;47.780;9.606;2022-09-24T15:28:12;16.00;99.90
19930;DHT22;10127;47.780;9.606;2022-09-24T15:30:38;16.10;99.90
19930;DHT22;10127;47.780;9.606;2022-09-24T15:33:10;16.10;99.90
19930;DHT22;10127;47.780;9.606;2022-09-24T15:35:37;16.20;99.90
19930;DHT22;10127;47.780;9.606;2022-09-24T15:38:03;16.30;99.90
19930;DHT22;10127;47.780;9.606;2022-09-24T15:40:30;16.20;99.90
19930;DHT22;10127;47.780;9.606;2022-09-24T15:43:00;16.10;99.90
19930;DHT22;10127;47.780;9.606;2022-09-24T15:45:26;16.00;99.90
19930;DHT22;10127;47.780;9.606;2022-09-24T15:47:52;16.00;99.90
19930;DHT22;10127;47.780;9.606;2022-09-24T15:50:20;15.90;99.90
19930;DHT22;10127;47.780;9.606;2022-09-24T15:52:52;15.70;99.90
19930;DHT22;10127;47.780;9.606;2022-09-24T15:55:19;15.70;99.90
19930;DHT22;10127;47.780;9.606;2022-09-24T15:57:45;15.70;99.90
19930;DHT22;10127;47.780;9.606;2022-09-24T16:00:22;15.70;99.90
19930;DHT22;10127;47.780;9.606;2022-09-24T16:02:50;15.60;99.90
19930;DHT22;10127;47.780;9.606;2022-09-24T16:05:17;15.60;99.90
19930;DHT22;10127;47.780;9.606;2022-09-24T16:07:43;15.50;99.90
19930;DHT22;10127;47.780;9.606;2022-09-24T16:10:10;15.50;99.90
19930;DHT22;10127;47.780;9.606;2022-09-24T16:12:37;15.40;99.90
19930;DHT22;10127;47.780;9.606;2022-09-24T16:15:03;15.50;99.90
19930;DHT22;10127;47.780;9.606;2022-09-24T16:17:29;15.40;99.90
19930;DHT22;10127;47.780;9.606;2022-09-24T16:19:55;15.40;99.90
19930;DHT22;10127;47.780;9.606;2022-09-24T16:22:20;15.30;99.90
19930;DHT22;10127;47.780;9.606;2022-09-24T16:24:46;15.30;99.90
19930;DHT22;10127;47.780;9.606;2022-09-24T16:27:12;15.40;99.90
19930;DHT22;10127;47.780;9.606;2022-09-24T16:29:37;15.40;99.90
19930;DHT22;10127;47.780;9.606;2022-09-24T16:32:03;15.40;99.90
19930;DHT22;10127;47.780;9.606;2022-09-24T16:34:29;15.30;99.90
19930;DHT22;10127;47.780;9.606;2022-09-24T16:36:55;15.20;99.90
19930;DHT22;10127;47.780;9.606;2022-09-24T16:39:20;15.20;99.90
19930;DHT22;10127;47.780;9.606;2022-09-24T16:41:49;15.20;99.90
19930;DHT22;10127;47.780;9.606;2022-09-24T16:44:15;15.20;99.90
19930;DHT22;10127;47.780;9.606;2022-09-24T16:46:42;15.20;99.90
19930;DHT22;10127;47.780;9.606;2022-09-24T16:49:08;15.40;99.90
19930;DHT22;10127;47.780;9.606;2022-09-24T16:51:33;15.50;99.90
19930;DHT22;10127;47.780;9.606;2022-09-24T16:53:59;15.40;99.90
19930;DHT22;10127;47.780;9.606;2022-09-24T16:56:25;15.30;99.90
19930;DHT22;10127;47.780;9.606;2022-09-24T16:58:51;15.20;99.90
19930;DHT22;10127;47.780;9.606;2022-09-24T17:01:18;15.10;99.90
19930;DHT22;10127;47.780;9.606;2022-09-24T17:03:56;15.00;99.90
19930;DHT22;10127;47.780;9.606;2022-09-24T17:06:27;14.90;99.90
19930;DHT22;10127;47.780;9.606;2022-09-24T17:08:53;14.80;99.90
19930;DHT22;10127;47.780;9.606;2022-09-24T17:11:38;14.70;99.90
19930;DHT22;10127;47.780;9.606;2022-09-24T17:14:05;14.60;99.90
19930;DHT22;10127;47.780;9.606;2022-09-24T17:16:32;14.50;99.90
19930;DHT22;10127;47.780;9.606;2022-09-24T17:18:58;14.50;99.90
19930;DHT22;10127;47.780;9.606;2022-09-24T17:21:23;14.50;99.90
19930;DHT22;10127;47.780;9.606;2022-09-24T17:23:49;14.50;99.90
19930;DHT22;10127;47.780;9.606;2022-09-24T17:26:18;14.30;99.90
19930;DHT22;10127;47.780;9.606;2022-09-24T17:28:45;14.30;99.90
19930;DHT22;10127;47.780;9.606;2022-09-24T17:31:14;14.20;99.90
19930;DHT22;10127;47.780;9.606;2022-09-24T17:33:40;14.20;99.90
19930;DHT22;10127;47.780;9.606;2022-09-24T17:36:09;14.20;99.90
19930;DHT22;10127;47.780;9.606;2022-09-24T17:38:35;14.30;99.90
19930;DHT22;10127;47.780;9.606;2022-09-24T17:41:07;14.20;99.90
19930;DHT22;10127;47.780;9.606;2022-09-24T17:43:33;14.20;99.90
19930;DHT22;10127;47.780;9.606;2022-09-24T17:46:00;14.20;99.90
19930;DHT22;10127;47.780;9.606;2022-09-24T17:48:45;14.20;99.90
19930;DHT22;10127;47.780;9.606;2022-09-24T17:51:20;14.20;99.90
19930;DHT22;10127;47.780;9.606;2022-09-24T17:53:48;14.10;99.90
19930;DHT22;10127;47.780;9.606;2022-09-24T17:56:15;14.00;99.90
19930;DHT22;10127;47.780;9.606;2022-09-24T17:58:43;14.00;99.90
19930;DHT22;10127;47.780;9.606;2022-09-24T18:01:14;13.90;99.90
19930;DHT22;10127;47.780;9.606;2022-09-24T18:03:42;13.80;99.90
19930;DHT22;10127;47.780;9.606;2022-09-24T18:06:11;13.80;99.90
19930;DHT22;10127;47.780;9.606;2022-09-24T18:08:38;13.70;99.90